sensor_id;sensor_type;location;lat;lon;timestamp;pressure;altitude;pressure_sealevel;temperature;humidity
24336;BME280;33098;52.400;16.880;2023-03-16T00:00:46;101117.35;;;1.62;76.42
24336;BME280;33098;52.400;16.880;2023-03-16T00:03:18;101119.36;;;1.54;76.42
24336;BME280;33098;52.400;16.880;2023-03-16T00:05:46;101125.30;;;1.49;76.50
24336;BME280;33098;52.400;16.880;2023-03-16T00:08:12;101128.95;;;1.43;76.78
24336;BME280;33098;52.400;16.880;2023-03-16T00:10:39;101130.16;;;1.43;76.94
24336;BME280;33098;52.400;16.880;2023-03-16T00:13:15;101137.27;;;1.45;77.08
24336;BME280;33098;52.400;16.880;2023-03-16T00:15:52;101133.20;;;1.47;77.24
24336;BME280;33098;52.400;16.880;2023-03-16T00:18:19;101137.27;;;1.46;77.33
24336;BME280;33098;52.400;16.880;2023-03-16T00:20:53;101137.16;;;1.44;77.48
24336;BME280;33098;52.400;16.880;2023-03-16T00:23:21;101139.95;;;1.44;77.68
24336;BME280;33098;52.400;16.880;2023-03-16T00:25:56;101139.75;;;1.45;77.85
24336;BME280;33098;52.400;16.880;2023-03-16T00:28:24;101137.37;;;1.42;77.82
24336;BME280;33098;52.400;16.880;2023-03-16T00:30:51;101141.19;;;1.44;78.14
24336;BME280;33098;52.400;16.880;2023-03-16T00:33:18;101141.04;;;1.37;78.26
24336;BME280;33098;52.400;16.880;2023-03-16T00:35:47;101143.85;;;1.30;78.66
24336;BME280;33098;52.400;16.880;2023-03-16T00:38:27;101142.09;;;1.24;78.72
24336;BME280;33098;52.400;16.880;2023-03-16T00:40:54;101144.82;;;1.21;78.89
24336;BME280;33098;52.400;16.880;2023-03-16T00:43:21;101141.37;;;1.19;78.99
24336;BME280;33098;52.400;16.880;2023-03-16T00:45:47;101142.41;;;1.20;78.92
24336;BME280;33098;52.400;16.880;2023-03-16T00:48:14;101141.83;;;1.21;79.38
24336;BME280;33098;52.400;16.880;2023-03-16T00:50:41;101143.82;;;1.25;79.53
24336;BME280;33098;52.400;16.880;2023-03-16T00:53:08;101137.21;;;1.30;79.39
24336;BME280;33098;52.400;16.880;2023-03-16T00:55:34;101140.95;;;1.33;79.51
24336;BME280;33098;52.400;16.880;2023-03-16T00:58:01;101142.59;;;1.31;79.29
24336;BME280;33098;52.400;16.880;2023-03-16T01:00:30;101147.13;;;1.32;79.46
24336;BME280;33098;52.400;16.880;2023-03-16T01:02:56;101149.95;;;1.25;79.55
24336;BME280;33098;52.400;16.880;2023-03-16T01:05:23;101149.88;;;1.14;79.64
24336;BME280;33098;52.400;16.880;2023-03-16T01:07:51;101149.77;;;1.19;80.00
24336;BME280;33098;52.400;16.880;2023-03-16T01:10:18;101155.77;;;1.23;80.30
24336;BME280;33098;52.400;16.880;2023-03-16T01:12:45;101159.53;;;1.26;80.21
24336;BME280;33098;52.400;16.880;2023-03-16T01:15:11;101162.94;;;1.23;80.27
24336;BME280;33098;52.400;16.880;2023-03-16T01:17:38;101159.61;;;1.17;80.41
24336;BME280;33098;52.400;16.880;2023-03-16T01:20:06;101167.55;;;1.21;80.60
24336;BME280;33098;52.400;16.880;2023-03-16T01:22:38;101171.25;;;1.32;80.68
24336;BME280;33098;52.400;16.880;2023-03-16T01:25:05;101173.20;;;1.31;80.40
24336;BME280;33098;52.400;16.880;2023-03-16T01:27:31;101172.08;;;1.22;80.40
24336;BME280;33098;52.400;16.880;2023-03-16T01:29:58;101177.01;;;1.14;80.55
24336;BME280;33098;52.400;16.880;2023-03-16T01:32:26;101181.11;;;1.11;80.53
24336;BME280;33098;52.400;16.880;2023-03-16T01:34:52;101184.69;;;1.08;80.72
24336;BME280;33098;52.400;16.880;2023-03-16T01:37:18;101185.81;;;0.99;81.06
24336;BME280;33098;52.400;16.880;2023-03-16T01:39:53;101184.88;;;0.94;81.12
24336;BME280;33098;52.400;16.880;2023-03-16T01:42:20;101184.71;;;0.94;81.34
24336;BME280;33098;52.400;16.880;2023-03-16T01:44:50;101184.58;;;0.93;81.60
24336;BME280;33098;52.400;16.880;2023-03-16T01:47:17;101188.31;;;0.97;81.67
24336;BME280;33098;52.400;16.880;2023-03-16T01:49:44;101189.41;;;0.88;82.43
24336;BME280;33098;52.400;16.880;2023-03-16T01:52:14;101187.20;;;0.78;82.37
24336;BME280;33098;52.400;16.880;2023-03-16T01:54:55;101183.54;;;0.72;82.73
24336;BME280;33098;52.400;16.880;2023-03-16T01:57:26;101183.02;;;0.71;82.63
24336;BME280;33098;52.400;16.880;2023-03-16T02:00:00;101186.48;;;0.73;83.25
24336;BME280;33098;52.400;16.880;2023-03-16T02:03:08;101185.13;;;0.64;83.53
24336;BME280;33098;52.400;16.880;2023-03-16T02:05:42;101189.20;;;0.62;83.85
24336;BME280;33098;52.400;16.880;2023-03-16T02:08:13;101193.81;;;0.66;84.32
24336;BME280;33098;52.400;16.880;2023-03-16T02:10:39;101192.14;;;0.63;84.75
24336;BME280;33098;52.400;16.880;2023-03-16T02:13:06;101194.71;;;0.65;85.09
24336;BME280;33098;52.400;16.880;2023-03-16T02:15:33;101194.19;;;0.72;85.35
24336;BME280;33098;52.400;16.880;2023-03-16T02:18:01;101194.27;;;0.76;85.42
24336;BME280;33098;52.400;16.880;2023-03-16T02:20:51;101200.63;;;0.73;85.70
24336;BME280;33098;52.400;16.880;2023-03-16T02:23:15;101197.86;;;0.79;85.76
24336;BME280;33098;52.400;16.880;2023-03-16T02:25:50;101195.27;;;0.91;85.84
24336;BME280;33098;52.400;16.880;2023-03-16T02:28:24;101201.33;;;0.93;85.74
24336;BME280;33098;52.400;16.880;2023-03-16T02:30:55;101198.30;;;0.95;85.66
24336;BME280;33098;52.400;16.880;2023-03-16T02:33:21;101205.74;;;0.98;85.87
24336;BME280;33098;52.400;16.880;2023-03-16T02:35:49;101205.27;;;0.96;86.04
24336;BME280;33098;52.400;16.880;2023-03-16T02:38:15;101207.03;;;1.03;85.84
24336;BME280;33098;52.400;16.880;2023-03-16T02:40:52;101204.92;;;1.03;86.03
24336;BME280;33098;52.400;16.880;2023-03-16T02:43:24;101206.85;;;1.09;86.12
24336;BME280;33098;52.400;16.880;2023-03-16T02:46:04;101209.77;;;1.11;85.95
24336;BME280;33098;52.400;16.880;2023-03-16T02:51:08;101215.17;;;1.11;85.53
24336;BME280;33098;52.400;16.880;2023-03-16T02:53:35;101216.07;;;1.11;85.66
24336;BME280;33098;52.400;16.880;2023-03-16T02:56:02;101217.00;;;1.09;85.47
24336;BME280;33098;52.400;16.880;2023-03-16T02:58:29;101215.30;;;1.07;85.50
24336;BME280;33098;52.400;16.880;2023-03-16T03:00:55;101213.91;;;1.00;85.58
24336;BME280;33098;52.400;16.880;2023-03-16T03:03:22;101216.45;;;0.97;85.45
24336;BME280;33098;52.400;16.880;2023-03-16T03:05:49;101213.92;;;1.00;85.81
24336;BME280;33098;52.400;16.880;2023-03-16T03:08:15;101217.92;;;1.07;85.63
24336;BME280;33098;52.400;16.880;2023-03-16T03:10:42;101217.08;;;1.12;85.68
24336;BME280;33098;52.400;16.880;2023-03-16T03:13:09;101220.48;;;1.09;85.44
24336;BME280;33098;52.400;16.880;2023-03-16T03:15:35;101221.28;;;1.06;85.43
24336;BME280;33098;52.400;16.880;2023-03-16T03:18:07;101220.98;;;1.03;85.41
24336;BME280;33098;52.400;16.880;2023-03-16T03:20:34;101220.05;;;0.99;85.42
24336;BME280;33098;52.400;16.880;2023-03-16T03:23:00;101222.98;;;0.87;85.57
24336;BME280;33098;52.400;16.880;2023-03-16T03:25:28;101225.02;;;0.83;85.62
24336;BME280;33098;52.400;16.880;2023-03-16T03:27:55;101228.08;;;0.79;85.99
24336;BME280;33098;52.400;16.880;2023-03-16T03:30:22;101235.02;;;0.74;85.87
24336;BME280;33098;52.400;16.880;2023-03-16T03:32:49;101231.41;;;0.72;85.99
24336;BME280;33098;52.400;16.880;2023-03-16T03:35:18;101235.08;;;0.65;86.27
24336;BME280;33098;52.400;16.880;2023-03-16T03:37:45;101236.36;;;0.63;86.71
24336;BME280;33098;52.400;16.880;2023-03-16T03:40:14;101234.58;;;0.64;86.85
24336;BME280;33098;52.400;16.880;2023-03-16T03:42:41;101229.60;;;0.67;87.07
24336;BME280;33098;52.400;16.880;2023-03-16T03:45:09;101233.25;;;0.75;87.05
24336;BME280;33098;52.400;16.880;2023-03-16T03:47:38;101231.60;;;0.86;86.91
24336;BME280;33098;52.400;16.880;2023-03-16T03:50:07;101233.68;;;0.92;87.03
24336;BME280;33098;52.400;16.880;2023-03-16T03:52:35;101234.82;;;0.96;86.84
24336;BME280;33098;52.400;16.880;2023-03-16T03:55:02;101234.70;;;1.01;86.94
24336;BME280;33098;52.400;16.880;2023-03-16T03:57:29;101241.90;;;1.06;86.76
24336;BME280;33098;52.400;16.880;2023-03-16T03:59:56;101240.25;;;1.09;86.56
24336;BME280;33098;52.400;16.880;2023-03-16T04:02:41;101238.31;;;1.10;86.49
24336;BME280;33098;52.400;16.880;2023-03-16T04:05:13;101240.05;;;1.24;86.89
24336;BME280;33098;52.400;16.880;2023-03-16T04:07:39;101237.17;;;1.32;86.65
24336;BME280;33098;52.400;16.880;2023-03-16T04:10:11;101236.98;;;1.40;86.50
24336;BME280;33098;52.400;16.880;2023-03-16T04:12:39;101235.77;;;1.33;86.03
24336;BME280;33098;52.400;16.880;2023-03-16T04:15:07;101238.95;;;1.19;85.68
24336;BME280;33098;52.400;16.880;2023-03-16T04:17:42;101238.94;;;1.06;85.80
24336;BME280;33098;52.400;16.880;2023-03-16T04:20:09;101235.86;;;0.96;85.48
24336;BME280;33098;52.400;16.880;2023-03-16T04:22:40;101242.01;;;0.95;85.73
24336;BME280;33098;52.400;16.880;2023-03-16T04:25:08;101243.30;;;0.86;85.67
24336;BME280;33098;52.400;16.880;2023-03-16T04:27:36;101243.27;;;0.72;85.62
24336;BME280;33098;52.400;16.880;2023-03-16T04:30:04;101253.11;;;0.63;85.84
24336;BME280;33098;52.400;16.880;2023-03-16T04:32:32;101252.17;;;0.58;86.24
24336;BME280;33098;52.400;16.880;2023-03-16T04:34:59;101251.52;;;0.49;86.49
24336;BME280;33098;52.400;16.880;2023-03-16T04:37:36;101253.78;;;0.42;86.67
24336;BME280;33098;52.400;16.880;2023-03-16T04:40:02;101256.86;;;0.45;87.11
24336;BME280;33098;52.400;16.880;2023-03-16T04:42:42;101258.83;;;0.50;87.16
24336;BME280;33098;52.400;16.880;2023-03-16T04:45:12;101262.15;;;0.58;87.28
24336;BME280;33098;52.400;16.880;2023-03-16T04:47:39;101262.79;;;0.53;87.33
24336;BME280;33098;52.400;16.880;2023-03-16T04:50:06;101259.06;;;0.48;87.39
24336;BME280;33098;52.400;16.880;2023-03-16T04:52:33;101263.17;;;0.44;87.24
24336;BME280;33098;52.400;16.880;2023-03-16T04:55:00;101268.45;;;0.58;87.50
24336;BME280;33098;52.400;16.880;2023-03-16T04:57:27;101268.52;;;0.55;87.45
24336;BME280;33098;52.400;16.880;2023-03-16T04:59:53;101269.83;;;0.51;87.62
24336;BME280;33098;52.400;16.880;2023-03-16T05:02:25;101267.35;;;0.45;87.45
24336;BME280;33098;52.400;16.880;2023-03-16T05:04:53;101271.45;;;0.48;87.72
24336;BME280;33098;52.400;16.880;2023-03-16T05:07:20;101267.36;;;0.52;87.63
24336;BME280;33098;52.400;16.880;2023-03-16T05:09:49;101271.46;;;0.55;87.55
24336;BME280;33098;52.400;16.880;2023-03-16T05:12:16;101271.58;;;0.58;87.61
24336;BME280;33098;52.400;16.880;2023-03-16T05:14:43;101266.77;;;0.62;87.72
24336;BME280;33098;52.400;16.880;2023-03-16T05:17:19;101272.02;;;0.69;87.77
24336;BME280;33098;52.400;16.880;2023-03-16T05:19:46;101276.67;;;0.64;87.55
24336;BME280;33098;52.400;16.880;2023-03-16T05:22:13;101278.83;;;0.69;87.47
24336;BME280;33098;52.400;16.880;2023-03-16T05:24:47;101275.31;;;0.76;87.62
24336;BME280;33098;52.400;16.880;2023-03-16T05:27:14;101272.28;;;0.79;87.57
24336;BME280;33098;52.400;16.880;2023-03-16T05:29:41;101279.96;;;0.79;87.09
24336;BME280;33098;52.400;16.880;2023-03-16T05:32:11;101278.20;;;0.80;86.94
24336;BME280;33098;52.400;16.880;2023-03-16T05:34:38;101285.18;;;0.81;86.95
24336;BME280;33098;52.400;16.880;2023-03-16T05:37:08;101286.65;;;0.86;86.86
24336;BME280;33098;52.400;16.880;2023-03-16T05:39:36;101282.22;;;0.95;86.94
24336;BME280;33098;52.400;16.880;2023-03-16T05:42:02;101279.98;;;0.86;86.65
24336;BME280;33098;52.400;16.880;2023-03-16T05:44:40;101284.79;;;0.83;86.68
24336;BME280;33098;52.400;16.880;2023-03-16T05:47:24;101290.92;;;0.82;86.52
24336;BME280;33098;52.400;16.880;2023-03-16T05:49:54;101290.14;;;0.86;86.65
24336;BME280;33098;52.400;16.880;2023-03-16T05:52:41;101288.70;;;0.94;86.66
24336;BME280;33098;52.400;16.880;2023-03-16T05:55:15;101295.05;;;0.98;86.44
24336;BME280;33098;52.400;16.880;2023-03-16T05:57:43;101290.58;;;0.96;86.19
24336;BME280;33098;52.400;16.880;2023-03-16T06:00:10;101292.48;;;0.90;86.06
24336;BME280;33098;52.400;16.880;2023-03-16T06:02:41;101297.02;;;0.91;86.39
24336;BME280;33098;52.400;16.880;2023-03-16T06:05:08;101300.48;;;0.98;86.43
24336;BME280;33098;52.400;16.880;2023-03-16T06:07:36;101291.39;;;1.05;86.28
24336;BME280;33098;52.400;16.880;2023-03-16T06:10:03;101301.67;;;1.07;86.32
24336;BME280;33098;52.400;16.880;2023-03-16T06:12:31;101300.13;;;1.12;86.26
24336;BME280;33098;52.400;16.880;2023-03-16T06:14:59;101304.11;;;1.21;86.44
24336;BME280;33098;52.400;16.880;2023-03-16T06:17:28;101307.08;;;1.21;86.42
24336;BME280;33098;52.400;16.880;2023-03-16T06:19:55;101306.62;;;1.25;86.26
24336;BME280;33098;52.400;16.880;2023-03-16T06:22:22;101301.82;;;1.35;86.37
24336;BME280;33098;52.400;16.880;2023-03-16T06:24:50;101300.44;;;1.41;86.19
24336;BME280;33098;52.400;16.880;2023-03-16T06:27:17;101302.93;;;1.40;86.04
24336;BME280;33098;52.400;16.880;2023-03-16T06:29:57;101304.00;;;1.45;86.01
24336;BME280;33098;52.400;16.880;2023-03-16T06:32:24;101303.45;;;1.53;86.20
24336;BME280;33098;52.400;16.880;2023-03-16T06:34:51;101304.85;;;1.59;86.19
24336;BME280;33098;52.400;16.880;2023-03-16T06:37:18;101307.94;;;1.62;86.07
24336;BME280;33098;52.400;16.880;2023-03-16T06:39:45;101308.87;;;1.66;85.84
24336;BME280;33098;52.400;16.880;2023-03-16T06:42:11;101308.14;;;1.67;85.67
24336;BME280;33098;52.400;16.880;2023-03-16T06:44:38;101311.17;;;1.71;85.73
24336;BME280;33098;52.400;16.880;2023-03-16T06:47:08;101307.44;;;1.79;85.78
24336;BME280;33098;52.400;16.880;2023-03-16T06:49:35;101310.10;;;1.85;85.83
24336;BME280;33098;52.400;16.880;2023-03-16T06:52:03;101312.83;;;1.87;85.82
24336;BME280;33098;52.400;16.880;2023-03-16T06:54:30;101316.15;;;1.93;85.48
24336;BME280;33098;52.400;16.880;2023-03-16T06:57:01;101318.64;;;1.98;85.52
24336;BME280;33098;52.400;16.880;2023-03-16T06:59:28;101324.30;;;1.96;85.38
24336;BME280;33098;52.400;16.880;2023-03-16T07:01:54;101324.52;;;1.94;85.23
24336;BME280;33098;52.400;16.880;2023-03-16T07:04:21;101328.42;;;1.93;85.06
24336;BME280;33098;52.400;16.880;2023-03-16T07:06:47;101335.08;;;1.87;85.12
24336;BME280;33098;52.400;16.880;2023-03-16T07:09:14;101337.05;;;1.85;85.27
24336;BME280;33098;52.400;16.880;2023-03-16T07:11:41;101333.84;;;1.80;85.42
24336;BME280;33098;52.400;16.880;2023-03-16T07:14:09;101340.73;;;1.84;85.29
24336;BME280;33098;52.400;16.880;2023-03-16T07:16:36;101338.44;;;1.78;85.45
24336;BME280;33098;52.400;16.880;2023-03-16T07:19:04;101343.00;;;1.78;85.48
24336;BME280;33098;52.400;16.880;2023-03-16T07:21:31;101343.90;;;1.78;85.36
24336;BME280;33098;52.400;16.880;2023-03-16T07:24:06;101342.29;;;1.85;85.85
24336;BME280;33098;52.400;16.880;2023-03-16T07:26:36;101344.73;;;1.92;85.91
24336;BME280;33098;52.400;16.880;2023-03-16T07:29:02;101349.53;;;1.96;85.89
24336;BME280;33098;52.400;16.880;2023-03-16T07:31:33;101347.44;;;2.01;85.79
24336;BME280;33098;52.400;16.880;2023-03-16T07:34:00;101355.90;;;2.05;85.78
24336;BME280;33098;52.400;16.880;2023-03-16T07:36:36;101352.98;;;2.09;85.93
24336;BME280;33098;52.400;16.880;2023-03-16T07:39:03;101356.54;;;2.20;85.94
24336;BME280;33098;52.400;16.880;2023-03-16T07:41:32;101357.41;;;2.25;85.66
24336;BME280;33098;52.400;16.880;2023-03-16T07:44:12;101355.33;;;2.37;85.72
24336;BME280;33098;52.400;16.880;2023-03-16T07:46:39;101358.99;;;2.49;85.32
24336;BME280;33098;52.400;16.880;2023-03-16T07:49:06;101358.13;;;2.55;84.99
24336;BME280;33098;52.400;16.880;2023-03-16T07:51:37;101361.87;;;2.65;84.90
24336;BME280;33098;52.400;16.880;2023-03-16T07:54:04;101363.63;;;2.70;84.49
24336;BME280;33098;52.400;16.880;2023-03-16T07:56:31;101368.58;;;2.80;84.41
24336;BME280;33098;52.400;16.880;2023-03-16T07:58:59;101366.78;;;2.93;83.91
24336;BME280;33098;52.400;16.880;2023-03-16T08:01:27;101364.68;;;2.98;83.28
24336;BME280;33098;52.400;16.880;2023-03-16T08:03:54;101371.52;;;3.08;83.74
24336;BME280;33098;52.400;16.880;2023-03-16T08:06:21;101376.98;;;3.19;82.75
24336;BME280;33098;52.400;16.880;2023-03-16T08:08:47;101377.37;;;3.18;81.88
24336;BME280;33098;52.400;16.880;2023-03-16T08:11:20;101379.17;;;3.21;81.61
24336;BME280;33098;52.400;16.880;2023-03-16T08:13:55;101381.69;;;3.35;82.29
24336;BME280;33098;52.400;16.880;2023-03-16T08:16:23;101386.61;;;3.51;82.56
24336;BME280;33098;52.400;16.880;2023-03-16T08:18:50;101386.52;;;3.59;81.70
24336;BME280;33098;52.400;16.880;2023-03-16T08:21:18;101388.02;;;3.66;81.41
24336;BME280;33098;52.400;16.880;2023-03-16T08:23:45;101393.05;;;3.73;81.08
24336;BME280;33098;52.400;16.880;2023-03-16T08:26:15;101392.63;;;3.81;81.20
24336;BME280;33098;52.400;16.880;2023-03-16T08:28:43;101399.45;;;3.91;81.14
24336;BME280;33098;52.400;16.880;2023-03-16T08:31:12;101400.08;;;3.99;79.55
24336;BME280;33098;52.400;16.880;2023-03-16T08:33:46;101398.28;;;3.94;78.67
24336;BME280;33098;52.400;16.880;2023-03-16T08:36:14;101395.79;;;3.90;78.33
24336;BME280;33098;52.400;16.880;2023-03-16T08:38:41;101400.09;;;3.98;78.66
24336;BME280;33098;52.400;16.880;2023-03-16T08:41:09;101399.95;;;4.02;78.00
24336;BME280;33098;52.400;16.880;2023-03-16T08:43:38;101405.79;;;4.06;78.26
24336;BME280;33098;52.400;16.880;2023-03-16T08:46:05;101403.52;;;4.20;78.21
24336;BME280;33098;52.400;16.880;2023-03-16T08:48:40;101409.04;;;4.27;77.58
24336;BME280;33098;52.400;16.880;2023-03-16T08:51:07;101407.80;;;4.42;77.80
24336;BME280;33098;52.400;16.880;2023-03-16T08:53:34;101413.84;;;4.54;77.51
24336;BME280;33098;52.400;16.880;2023-03-16T08:56:03;101418.30;;;4.67;77.16
24336;BME280;33098;52.400;16.880;2023-03-16T08:58:30;101418.70;;;4.79;77.41
24336;BME280;33098;52.400;16.880;2023-03-16T09:00:59;101423.98;;;4.93;77.03
24336;BME280;33098;52.400;16.880;2023-03-16T09:03:26;101421.24;;;4.95;75.99
24336;BME280;33098;52.400;16.880;2023-03-16T09:05:53;101421.16;;;4.97;75.70
24336;BME280;33098;52.400;16.880;2023-03-16T09:08:20;101421.81;;;5.03;75.87
24336;BME280;33098;52.400;16.880;2023-03-16T09:10:46;101421.75;;;5.09;76.27
24336;BME280;33098;52.400;16.880;2023-03-16T09:13:13;101431.81;;;5.22;76.64
24336;BME280;33098;52.400;16.880;2023-03-16T09:15:39;101434.52;;;5.29;76.75
24336;BME280;33098;52.400;16.880;2023-03-16T09:18:06;101435.81;;;5.41;76.90
24336;BME280;33098;52.400;16.880;2023-03-16T09:20:32;101439.58;;;5.55;76.95
24336;BME280;33098;52.400;16.880;2023-03-16T09:22:59;101434.92;;;5.70;76.85
24336;BME280;33098;52.400;16.880;2023-03-16T09:25:26;101435.23;;;5.88;77.02
24336;BME280;33098;52.400;16.880;2023-03-16T09:27:53;101430.86;;;6.00;76.86
24336;BME280;33098;52.400;16.880;2023-03-16T09:30:19;101432.19;;;6.14;76.77
24336;BME280;33098;52.400;16.880;2023-03-16T09:32:46;101437.65;;;6.22;76.57
24336;BME280;33098;52.400;16.880;2023-03-16T09:35:14;101438.16;;;6.27;75.63
24336;BME280;33098;52.400;16.880;2023-03-16T09:37:41;101436.04;;;6.23;75.20
24336;BME280;33098;52.400;16.880;2023-03-16T09:40:13;101440.99;;;6.30;75.66
24336;BME280;33098;52.400;16.880;2023-03-16T09:42:50;101443.70;;;6.41;75.71
24336;BME280;33098;52.400;16.880;2023-03-16T09:47:46;101446.04;;;6.59;74.65
24336;BME280;33098;52.400;16.880;2023-03-16T09:50:22;101439.22;;;6.62;74.98
24336;BME280;33098;52.400;16.880;2023-03-16T09:55:26;101443.56;;;6.82;74.95
24336;BME280;33098;52.400;16.880;2023-03-16T09:57:53;101446.39;;;6.90;74.76
24336;BME280;33098;52.400;16.880;2023-03-16T10:05:16;101447.06;;;6.91;73.71
24336;BME280;33098;52.400;16.880;2023-03-16T10:07:59;101452.55;;;6.90;73.34
24336;BME280;33098;52.400;16.880;2023-03-16T10:13:36;101453.40;;;6.91;72.32
24336;BME280;33098;52.400;16.880;2023-03-16T10:16:12;101454.42;;;6.92;73.03
24336;BME280;33098;52.400;16.880;2023-03-16T10:18:43;101456.06;;;6.98;73.28
24336;BME280;33098;52.400;16.880;2023-03-16T10:21:12;101455.11;;;7.15;72.11
24336;BME280;33098;52.400;16.880;2023-03-16T10:23:40;101457.13;;;7.16;70.44
24336;BME280;33098;52.400;16.880;2023-03-16T10:26:40;101456.65;;;7.04;68.34
24336;BME280;33098;52.400;16.880;2023-03-16T10:28:59;101453.82;;;6.82;69.09
24336;BME280;33098;52.400;16.880;2023-03-16T10:31:26;101457.64;;;6.68;68.18
24336;BME280;33098;52.400;16.880;2023-03-16T10:33:54;101461.23;;;6.51;67.70
24336;BME280;33098;52.400;16.880;2023-03-16T10:36:26;101456.39;;;6.49;67.35
24336;BME280;33098;52.400;16.880;2023-03-16T10:38:56;101462.10;;;6.59;68.17
24336;BME280;33098;52.400;16.880;2023-03-16T10:41:29;101453.48;;;6.70;68.70
24336;BME280;33098;52.400;16.880;2023-03-16T10:46:35;101453.24;;;7.24;69.88
24336;BME280;33098;52.400;16.880;2023-03-16T10:49:03;101452.54;;;7.35;69.12
24336;BME280;33098;52.400;16.880;2023-03-16T10:51:30;101451.98;;;7.39;69.26
24336;BME280;33098;52.400;16.880;2023-03-16T10:54:03;101453.34;;;7.37;67.45
24336;BME280;33098;52.400;16.880;2023-03-16T10:56:33;101459.23;;;7.13;64.98
24336;BME280;33098;52.400;16.880;2023-03-16T10:59:00;101457.17;;;7.08;65.14
24336;BME280;33098;52.400;16.880;2023-03-16T11:01:28;101455.15;;;7.17;65.43
24336;BME280;33098;52.400;16.880;2023-03-16T11:03:57;101446.40;;;7.34;66.03
24336;BME280;33098;52.400;16.880;2023-03-16T11:06:28;101449.60;;;7.52;66.30
24336;BME280;33098;52.400;16.880;2023-03-16T11:09:05;101447.89;;;7.72;66.58
24336;BME280;33098;52.400;16.880;2023-03-16T11:11:34;101450.42;;;7.95;66.48
24336;BME280;33098;52.400;16.880;2023-03-16T11:14:02;101449.91;;;8.05;65.53
24336;BME280;33098;52.400;16.880;2023-03-16T11:16:38;101445.95;;;8.06;63.85
24336;BME280;33098;52.400;16.880;2023-03-16T11:21:41;101445.09;;;8.53;65.85
24336;BME280;33098;52.400;16.880;2023-03-16T11:27:05;101447.08;;;8.98;65.81
24336;BME280;33098;52.400;16.880;2023-03-16T11:32:34;101442.27;;;9.46;66.26
24336;BME280;33098;52.400;16.880;2023-03-16T11:35:05;101443.85;;;9.76;65.79
24336;BME280;33098;52.400;16.880;2023-03-16T11:40:24;101438.52;;;9.97;63.45
24336;BME280;33098;52.400;16.880;2023-03-16T11:50:49;101446.56;;;10.52;63.33
24336;BME280;33098;52.400;16.880;2023-03-16T11:58:37;101448.48;;;10.50;61.43
24336;BME280;33098;52.400;16.880;2023-03-16T12:06:14;101463.31;;;9.74;56.07
24336;BME280;33098;52.400;16.880;2023-03-16T12:14:22;101459.20;;;9.38;56.92
24336;BME280;33098;52.400;16.880;2023-03-16T12:17:02;101453.98;;;9.05;55.87
24336;BME280;33098;52.400;16.880;2023-03-16T12:22:13;101450.59;;;9.36;56.68
24336;BME280;33098;52.400;16.880;2023-03-16T12:24:42;101447.68;;;9.59;57.78
24336;BME280;33098;52.400;16.880;2023-03-16T12:27:12;101449.27;;;9.77;57.05
24336;BME280;33098;52.400;16.880;2023-03-16T12:29:43;101452.09;;;9.69;56.27
24336;BME280;33098;52.400;16.880;2023-03-16T12:32:17;101444.20;;;9.71;56.57
24336;BME280;33098;52.400;16.880;2023-03-16T12:34:47;101442.23;;;9.91;57.84
24336;BME280;33098;52.400;16.880;2023-03-16T12:42:24;101436.29;;;11.03;58.21
24336;BME280;33098;52.400;16.880;2023-03-16T12:45:22;101437.54;;;11.08;54.13
24336;BME280;33098;52.400;16.880;2023-03-16T12:48:19;101441.98;;;11.38;56.13
24336;BME280;33098;52.400;16.880;2023-03-16T12:50:51;101436.63;;;11.86;56.56
24336;BME280;33098;52.400;16.880;2023-03-16T12:56:15;101440.73;;;12.66;57.55
24336;BME280;33098;52.400;16.880;2023-03-16T12:58:44;101437.81;;;12.82;52.47
24336;BME280;33098;52.400;16.880;2023-03-16T13:01:12;101436.05;;;12.67;53.60
24336;BME280;33098;52.400;16.880;2023-03-16T13:03:40;101435.05;;;12.53;52.79
24336;BME280;33098;52.400;16.880;2023-03-16T13:06:15;101433.28;;;12.50;54.81
24336;BME280;33098;52.400;16.880;2023-03-16T13:08:43;101433.67;;;12.63;55.71
24336;BME280;33098;52.400;16.880;2023-03-16T13:11:12;101439.52;;;12.88;55.93
24336;BME280;33098;52.400;16.880;2023-03-16T13:16:37;101443.93;;;13.23;55.37
24336;BME280;33098;52.400;16.880;2023-03-16T13:19:16;101444.85;;;13.47;55.63
24336;BME280;33098;52.400;16.880;2023-03-16T13:21:42;101447.13;;;13.33;53.65
24336;BME280;33098;52.400;16.880;2023-03-16T13:26:46;101445.98;;;12.52;51.43
24336;BME280;33098;52.400;16.880;2023-03-16T13:29:18;101445.30;;;12.42;52.40
24336;BME280;33098;52.400;16.880;2023-03-16T13:31:45;101449.89;;;12.62;53.09
24336;BME280;33098;52.400;16.880;2023-03-16T13:34:20;101452.02;;;12.85;52.22
24336;BME280;33098;52.400;16.880;2023-03-16T13:36:47;101456.76;;;12.73;52.39
24336;BME280;33098;52.400;16.880;2023-03-16T13:39:19;101455.52;;;12.48;52.63
24336;BME280;33098;52.400;16.880;2023-03-16T13:42:21;101456.40;;;12.26;52.81
24336;BME280;33098;52.400;16.880;2023-03-16T13:44:40;101453.17;;;12.26;53.04
24336;BME280;33098;52.400;16.880;2023-03-16T13:47:07;101449.38;;;12.39;53.75
24336;BME280;33098;52.400;16.880;2023-03-16T13:49:41;101454.15;;;12.45;53.55
24336;BME280;33098;52.400;16.880;2023-03-16T13:54:55;101450.63;;;11.69;51.41
24336;BME280;33098;52.400;16.880;2023-03-16T13:57:27;101450.46;;;11.79;52.91
24336;BME280;33098;52.400;16.880;2023-03-16T14:00:29;101443.55;;;11.68;49.89
24336;BME280;33098;52.400;16.880;2023-03-16T14:02:54;101443.03;;;11.36;49.84
24336;BME280;33098;52.400;16.880;2023-03-16T14:05:23;101445.07;;;11.18;50.91
24336;BME280;33098;52.400;16.880;2023-03-16T14:07:50;101445.27;;;11.12;51.95
24336;BME280;33098;52.400;16.880;2023-03-16T14:10:17;101447.04;;;11.09;52.31
24336;BME280;33098;52.400;16.880;2023-03-16T14:12:53;101449.13;;;10.94;51.32